Aviation Digital Data Service (ADDS)

Output produced by METARs form (1653 UTC 16 June 2019)
found at http://www.aviationweather.gov/metar/data/
 
DXXX 161600Z 21013KT 9999 FEW013 29/24 Q1013 NOSIG
TAF DXXX 161100Z 1612/1718 20010KT 9999 SCT013 
     BECMG 1622/1624 VRB05KT 
     BECMG 1708/1710 20010KT
       
DXNG 161600Z 21004KT 170V260 9999 FEW010 31/22 Q1014
TAF DXNG 161100Z 1612/1712 VRB05KT 9999 SCT008 
     PROB30 
     TEMPO 1615/1619 TS BKN008 FEW018CB